Time;durP1;ratioP1;P1;durP2;ratioP2;P2;SDS_P1;SDS_P2;PMS_P1;PMS_P2;Temp;Humidity;BMP_temperature;BMP_pressure;BME280_temperature;BME280_humidity;BME280_pressure;Samples;Min_cycle;Max_cycle;Signal;HPM_P1;HPM_P2
2021/07/04 00:00:43;;;;;;;4.30;2.94;;;;;;;18.57;82.35;98974.31;2001367;78;21581;-76
2021/07/04 00:03:46;;;;;;;3.71;3.34;;;;;;;18.55;82.51;98974.38;2002161;81;20182;-76
2021/07/04 00:06:48;;;;;;;4.95;3.01;;;;;;;18.56;82.57;98977.84;2002341;81;20635;-76
2021/07/04 00:09:51;;;;;;;4.86;3.39;;;;;;;18.56;82.63;98976.09;2002541;81;20209;-76
2021/07/04 00:12:54;;;;;;;2.91;2.65;;;;;;;18.53;82.85;98965.69;2002906;81;20197;-76
2021/07/04 00:15:58;;;;;;;3.19;2.72;;;;;;;18.53;82.70;98964.84;2001185;78;20181;-76
2021/07/04 00:19:00;;;;;;;3.06;2.74;;;;;;;18.48;82.87;98970.28;2002476;81;20169;-76
2021/07/04 00:22:03;;;;;;;2.99;2.70;;;;;;;18.43;82.96;98972.28;2002111;81;20231;-76
2021/07/04 00:25:09;;;;;;;4.46;2.76;;;;;;;18.39;83.15;98961.03;2001856;81;20275;-76
2021/07/04 00:28:12;;;;;;;5.68;3.10;;;;;;;18.34;83.39;98959.53;2001944;81;20248;-76
2021/07/04 00:31:14;;;;;;;4.10;3.00;;;;;;;18.30;83.38;98960.56;2000678;78;21726;-76
2021/07/04 00:34:17;;;;;;;3.28;2.75;;;;;;;18.29;83.43;98957.06;2001770;81;20178;-76
2021/07/04 00:37:20;;;;;;;4.28;3.34;;;;;;;18.25;83.71;98957.28;2002424;81;20174;-76
2021/07/04 00:40:24;;;;;;;3.06;2.78;;;;;;;18.23;83.75;98952.09;2002019;81;20263;-76
2021/07/04 00:43:27;;;;;;;3.10;2.88;;;;;;;18.19;83.89;98953.16;2001620;81;20641;-76
2021/07/04 00:46:31;;;;;;;3.33;2.55;;;;;;;18.18;83.99;98951.44;2001867;78;20834;-78
2021/07/04 00:49:34;;;;;;;3.64;2.97;;;;;;;18.14;84.02;98946.38;2002046;81;20169;-77
2021/07/04 00:52:37;;;;;;;3.58;2.70;;;;;;;18.08;84.07;98958.00;2001842;81;20166;-77
2021/07/04 00:55:41;;;;;;;4.15;2.63;;;;;;;18.04;84.18;98954.63;2003223;81;20672;-78
2021/07/04 00:58:44;;;;;;;4.40;2.65;;;;;;;17.99;84.50;98955.75;2002248;81;20185;-77
2021/07/04 01:01:47;;;;;;;5.29;2.86;;;;;;;17.97;84.43;98960.22;2001663;78;20197;-78
2021/07/04 01:04:50;;;;;;;4.43;2.76;;;;;;;17.94;84.48;98960.31;2002087;81;20217;-77
2021/07/04 01:07:54;;;;;;;5.74;3.08;;;;;;;17.91;84.42;98963.09;2001968;81;20224;-77
2021/07/04 01:10:57;;;;;;;4.55;2.85;;;;;;;17.88;84.39;98961.44;2002467;81;20207;-77
2021/07/04 01:14:00;;;;;;;4.70;2.70;;;;;;;17.85;84.33;98965.97;2002158;81;20209;-77
2021/07/04 01:17:03;;;;;;;3.09;2.61;;;;;;;17.76;84.54;98954.91;2002492;78;25555;-77
2021/07/04 01:20:09;;;;;;;6.31;2.70;;;;;;;17.66;84.80;98958.81;2002510;81;20617;-78
2021/07/04 01:23:14;;;;;;;3.67;2.19;;;;;;;17.61;84.99;98958.16;2002864;81;20201;-77
2021/07/04 01:26:17;;;;;;;3.10;2.40;;;;;;;17.57;85.20;98953.06;2004178;81;20186;-78
2021/07/04 01:29:20;;;;;;;5.84;2.51;;;;;;;17.53;85.40;98957.56;2004141;81;20717;-77
2021/07/04 01:32:23;;;;;;;3.35;2.66;;;;;;;17.50;85.24;98955.94;2002032;78;22286;-77
2021/07/04 01:35:27;;;;;;;2.66;2.41;;;;;;;17.42;85.26;98955.38;2003541;81;20301;-77
2021/07/04 01:38:30;;;;;;;6.71;2.58;;;;;;;17.36;85.24;98952.97;2003464;81;20169;-78
2021/07/04 01:41:34;;;;;;;4.11;2.84;;;;;;;17.27;85.46;98950.72;2003271;81;20158;-77
2021/07/04 01:44:37;;;;;;;3.44;2.70;;;;;;;17.19;85.64;98950.16;2003357;81;20253;-77
2021/07/04 01:47:40;;;;;;;7.21;2.84;;;;;;;17.12;86.23;98951.31;2002220;78;25941;-77
2021/07/04 01:50:47;;;;;;;7.00;2.34;;;;;;;17.14;86.14;98952.09;2002685;81;20247;-77
2021/07/04 01:53:49;;;;;;;3.25;2.51;;;;;;;17.09;85.91;98949.66;2003336;80;20182;-77
2021/07/04 01:56:52;;;;;;;3.01;2.38;;;;;;;17.02;86.05;98944.69;2002280;81;21571;-78
2021/07/04 01:59:56;;;;;;;4.05;2.50;;;;;;;16.99;86.23;98948.28;2003202;81;20223;-78
2021/07/04 02:03:02;;;;;;;4.47;2.16;;;;;;;16.96;86.00;98947.56;2002154;78;20237;-78
2021/07/04 02:06:05;;;;;;;2.79;2.58;;;;;;;16.92;86.07;98936.34;2004209;81;20259;-78
2021/07/04 02:09:07;;;;;;;4.81;2.61;;;;;;;16.86;85.90;98949.66;2004215;81;20174;-78
2021/07/04 02:12:11;;;;;;;4.45;2.61;;;;;;;16.81;85.83;98956.84;2004362;81;20182;-78
2021/07/04 02:15:17;;;;;;;3.83;2.40;;;;;;;16.79;86.07;98948.19;2003153;81;20178;-77
2021/07/04 02:18:20;;;;;;;2.67;2.31;;;;;;;16.78;86.01;98947.31;2004101;81;20211;-78
2021/07/04 02:21:23;;;;;;;7.36;2.33;;;;;;;16.74;85.96;98940.50;2003621;81;20174;-77
2021/07/04 02:24:26;;;;;;;6.60;2.30;;;;;;;16.73;86.15;98940.53;2003744;81;20766;-78
2021/07/04 02:27:29;;;;;;;5.38;2.38;;;;;;;16.70;86.05;98941.53;2003901;81;20195;-78
2021/07/04 02:30:34;;;;;;;3.84;2.35;;;;;;;16.67;85.98;98935.50;2002799;78;21071;-78
2021/07/04 02:33:37;;;;;;;2.84;2.26;;;;;;;16.64;85.91;98931.19;2004392;81;20202;-78
2021/07/04 02:36:40;;;;;;;2.55;2.35;;;;;;;16.53;86.25;98934.22;2003490;81;20173;-77
2021/07/04 02:39:42;;;;;;;3.09;2.20;;;;;;;16.46;86.73;98930.09;2004038;81;20195;-77
2021/07/04 02:42:45;;;;;;;4.06;2.13;;;;;;;16.43;86.73;98935.44;2003366;81;20219;-78
2021/07/04 02:45:49;;;;;;;2.58;2.09;;;;;;;16.39;86.60;98931.25;2003366;78;20189;-78
2021/07/04 02:48:52;;;;;;;2.42;2.22;;;;;;;16.38;86.73;98931.28;2003821;81;21003;-77
2021/07/04 02:51:54;;;;;;;2.63;2.19;;;;;;;16.38;86.62;98933.91;2003670;81;20213;-78
2021/07/04 02:54:57;;;;;;;2.50;2.20;;;;;;;16.35;86.49;98939.28;2003532;81;20304;-77
2021/07/04 02:57:59;;;;;;;2.40;2.28;;;;;;;16.33;86.73;98939.28;2004575;81;20162;-78
2021/07/04 03:01:02;;;;;;;2.90;2.42;;;;;;;16.28;86.75;98934.22;2002522;78;20660;-78
2021/07/04 03:04:05;;;;;;;3.58;2.06;;;;;;;16.26;87.09;98943.91;2003940;81;20182;-79
2021/07/04 03:07:09;;;;;;;2.40;2.20;;;;;;;16.25;86.83;98941.34;2002551;81;20170;-78
2021/07/04 03:10:14;;;;;;;6.24;2.13;;;;;;;16.22;86.77;98937.06;2002922;81;20177;-79
2021/07/04 03:13:17;;;;;;;6.19;2.08;;;;;;;16.19;86.96;98936.31;2002523;81;20263;-77
2021/07/04 03:16:20;;;;;;;2.20;2.00;;;;;;;16.18;87.37;98932.84;2000912;78;20795;-78
2021/07/04 03:19:23;;;;;;;2.66;2.09;;;;;;;16.20;87.52;98936.25;2002779;81;21145;-78
2021/07/04 03:22:25;;;;;;;2.97;2.35;;;;;;;16.22;87.58;98938.81;2002018;81;20255;-78
2021/07/04 03:25:28;;;;;;;3.71;2.22;;;;;;;16.21;87.88;98937.13;2002298;81;20189;-79
2021/07/04 03:28:31;;;;;;;2.65;2.01;;;;;;;16.21;87.95;98932.72;2002018;81;20169;-78
2021/07/04 03:31:34;;;;;;;3.67;2.29;;;;;;;16.24;87.96;98929.16;2002153;78;23363;-79
2021/07/04 03:34:37;;;;;;;3.35;2.20;;;;;;;16.26;88.21;98929.94;2002423;81;20198;-78
2021/07/04 03:37:40;;;;;;;3.13;1.84;;;;;;;16.22;88.62;98921.34;2002282;81;20583;-79
2021/07/04 03:40:43;;;;;;;3.50;2.19;;;;;;;16.23;88.73;98924.81;2003604;81;20680;-79
2021/07/04 03:43:46;;;;;;;3.50;2.50;;;;;;;16.27;88.50;98919.41;2003662;81;20290;-78
2021/07/04 03:46:48;;;;;;;2.67;2.36;;;;;;;16.28;88.49;98921.13;2001491;78;29539;-79
2021/07/04 03:49:52;;;;;;;3.24;2.78;;;;;;;16.31;88.89;98921.00;2002731;81;20194;-78
2021/07/04 03:52:56;;;;;;;3.78;2.36;;;;;;;16.34;88.63;98917.44;2002206;81;20355;-77
2021/07/04 03:55:58;;;;;;;2.91;2.47;;;;;;;16.38;88.44;98910.34;2002284;81;20572;-78
2021/07/04 03:59:01;;;;;;;2.21;2.06;;;;;;;16.40;88.20;98919.84;2002370;81;20187;-78
2021/07/04 04:02:03;;;;;;;3.72;2.70;;;;;;;16.32;88.36;98930.56;2001640;78;20358;-78
2021/07/04 04:05:07;;;;;;;2.58;2.35;;;;;;;16.36;88.52;98927.88;2002000;81;20189;-78
2021/07/04 04:08:10;;;;;;;3.47;1.91;;;;;;;16.37;88.80;98927.81;2003341;81;20196;-78
2021/07/04 04:11:13;;;;;;;2.79;2.44;;;;;;;16.43;89.01;98929.34;2003407;81;20194;-79
2021/07/04 04:14:15;;;;;;;2.55;2.35;;;;;;;16.48;88.63;98917.78;2002284;81;20518;-79
2021/07/04 04:17:18;;;;;;;3.35;2.59;;;;;;;16.54;88.91;98925.44;1997759;78;20198;-78
2021/07/04 04:20:20;;;;;;;5.96;2.61;;;;;;;16.58;88.95;98926.19;2005285;80;20357;-78
2021/07/04 04:23:23;;;;;;;3.66;2.36;;;;;;;16.66;88.70;98929.38;2002290;81;20223;-78
2021/07/04 04:26:26;;;;;;;3.34;2.24;;;;;;;16.65;88.80;98932.91;2001839;81;20716;-78
2021/07/04 04:29:29;;;;;;;4.91;2.66;;;;;;;16.67;89.05;98933.75;2002594;81;20213;-78
2021/07/04 04:32:31;;;;;;;3.31;2.10;;;;;;;16.74;88.78;98932.63;2002799;78;22478;-78
2021/07/04 04:35:34;;;;;;;9.16;2.80;;;;;;;16.77;88.96;98924.63;2002351;81;20177;-78
2021/07/04 04:38:36;;;;;;;3.03;2.14;;;;;;;16.84;88.68;98922.63;2002315;81;20173;-79
2021/07/04 04:41:39;;;;;;;4.51;2.78;;;;;;;16.92;88.38;98923.22;1998116;81;20629;-78
2021/07/04 04:44:58;;;;;;;3.92;2.59;;;;;;;16.99;88.08;98926.44;2002696;81;20201;-79
2021/07/04 04:48:01;;;;;;;2.85;2.54;;;;;;;17.04;87.75;98917.50;1996355;78;20174;-78
2021/07/04 04:51:06;;;;;;;3.41;2.79;;;;;;;17.09;87.59;98918.19;1996526;81;20307;-78
2021/07/04 04:54:09;;;;;;;3.39;2.60;;;;;;;17.11;87.41;98918.13;1997217;81;20277;-78
2021/07/04 04:57:12;;;;;;;2.58;2.36;;;;;;;17.11;87.63;98913.72;1996533;81;20234;-78
2021/07/04 05:00:15;;;;;;;2.74;2.54;;;;;;;17.15;87.54;98910.06;1997502;81;20275;-79
2021/07/04 05:03:18;;;;;;;2.95;2.63;;;;;;;17.17;87.54;98902.13;2001781;78;26169;-78
2021/07/04 05:06:20;;;;;;;4.03;2.61;;;;;;;17.21;87.51;98903.72;2002710;81;20319;-79
2021/07/04 05:09:23;;;;;;;2.90;2.70;;;;;;;17.30;87.38;98908.63;2003357;81;20223;-79
2021/07/04 05:12:26;;;;;;;2.84;2.63;;;;;;;17.41;86.89;98905.56;2003140;81;20195;-78
2021/07/04 05:15:29;;;;;;;5.11;2.67;;;;;;;17.52;86.82;98903.38;2002262;79;23957;-78
2021/07/04 05:18:33;;;;;;;6.78;3.09;;;;;;;17.60;86.87;98905.69;2002492;81;20197;-78
2021/07/04 05:21:35;;;;;;;3.90;2.88;;;;;;;17.71;86.61;98908.75;2002532;81;20226;-78
2021/07/04 05:24:38;;;;;;;3.74;3.20;;;;;;;17.77;85.79;98903.25;2003561;81;20734;-78
2021/07/04 05:27:41;;;;;;;3.24;2.83;;;;;;;17.80;85.22;98892.63;2003306;81;20233;-78
2021/07/04 05:30:44;;;;;;;4.70;3.71;;;;;;;17.79;85.04;98891.78;2001934;81;23275;-79
2021/07/04 05:33:46;;;;;;;8.60;4.07;;;;;;;17.80;85.06;98893.50;2002566;81;20196;-79
2021/07/04 05:36:50;;;;;;;5.13;3.49;;;;;;;17.81;85.30;98897.81;2007104;81;20515;-80
2021/07/04 05:39:52;;;;;;;6.30;3.46;;;;;;;17.82;85.37;98893.41;2003375;81;20182;-79
2021/07/04 05:42:55;;;;;;;4.13;3.55;;;;;;;17.78;85.75;98890.06;2003712;81;20312;-80
2021/07/04 05:45:59;;;;;;;3.30;3.10;;;;;;;17.72;86.59;98895.56;2004719;78;21743;-81
2021/07/04 05:49:05;;;;;;;8.60;4.25;;;;;;;17.71;87.06;98899.09;2010043;81;20290;-83
2021/07/04 05:52:08;;;;;;;5.28;3.80;;;;;;;17.65;87.50;98903.72;2012487;81;20203;-85
2021/07/04 06:01:51;;;;;;;4.57;3.69;;;;;;;17.64;88.40;98896.78;2059806;70;171581;-82
2021/07/04 06:04:55;;;;;;;6.90;3.74;;;;;;;17.63;88.86;98893.28;2015686;81;20294;-84
2021/07/04 06:07:57;;;;;;;4.75;3.97;;;;;;;17.61;89.37;98894.28;2014622;81;20191;-84
2021/07/04 06:11:00;;;;;;;4.93;4.19;;;;;;;17.58;89.51;98887.34;2019561;81;20155;-86
2021/07/04 06:37:25;;;;;;;4.39;3.90;;;;;;;17.68;90.99;98880.00;2245758;70;20384;-86
2021/07/04 06:40:28;;;;;;;9.93;3.92;;;;;;;17.72;91.23;98884.19;2018230;81;20174;-84
2021/07/04 06:43:32;;;;;;;7.03;4.19;;;;;;;17.77;91.32;98883.13;2015402;81;20205;-84
2021/07/04 06:46:35;;;;;;;7.99;4.06;;;;;;;17.83;nan;98873.25;2020909;80;20146;-84
2021/07/04 06:49:38;;;;;;;5.60;4.03;;;;;;;17.88;91.42;98881.78;2015335;80;20258;-84
2021/07/04 06:52:42;;;;;;;10.00;4.13;;;;;;;17.97;91.01;98884.03;2015952;81;20178;-84
2021/07/04 06:55:59;;;;;;;5.22;4.00;;;;;;;18.02;90.46;98884.69;2050641;70;20190;-83
2021/07/04 06:59:02;;;;;;;6.01;4.29;;;;;;;18.03;90.26;98882.00;2214149;70;20223;-81
2021/07/04 07:02:08;;;;;;;4.84;4.38;;;;;;;18.03;89.90;98868.88;2099375;70;112324;-80
2021/07/04 07:11:45;;;;;;;5.63;4.45;;;;;;;18.08;89.92;98869.50;2001238;81;20260;-77
2021/07/04 07:14:48;;;;;;;4.19;3.89;;;;;;;18.07;89.90;98865.19;2005783;81;20202;-82
2021/07/04 07:17:51;;;;;;;5.76;3.92;;;;;;;18.09;89.71;98865.09;2007166;78;22794;-79
2021/07/04 07:20:53;;;;;;;5.54;4.15;;;;;;;18.06;89.45;98860.84;1997956;81;20919;-78
2021/07/04 07:23:56;;;;;;;7.82;4.34;;;;;;;18.05;89.66;98860.91;1998312;81;20203;-85
2021/07/04 07:26:58;;;;;;;4.26;3.96;;;;;;;18.08;90.09;98858.16;1998663;81;20166;-77
2021/07/04 07:30:02;;;;;;;5.85;4.70;;;;;;;18.16;90.35;98858.69;1997943;81;20240;-78
2021/07/04 07:33:05;;;;;;;4.19;3.81;;;;;;;18.28;90.76;98854.63;1997022;78;20749;-77
2021/07/04 07:36:08;;;;;;;4.57;4.05;;;;;;;18.40;90.65;98840.97;1997275;81;20243;-78
2021/07/04 07:39:11;;;;;;;4.24;3.81;;;;;;;18.55;90.17;98839.41;1997946;81;20174;-80
2021/07/04 07:42:14;;;;;;;4.09;3.72;;;;;;;18.68;89.25;98830.09;2001933;81;20248;-83
2021/07/04 07:48:43;;;;;;;4.74;4.26;;;;;;;18.93;89.17;98843.78;2145719;70;20268;-86
2021/07/04 07:55:03;;;;;;;5.41;4.47;;;;;;;19.01;87.98;98846.03;2063551;70;20170;-77
2021/07/04 07:58:06;;;;;;;6.56;5.93;;;;;;;19.04;87.69;98843.28;2060891;70;20276;-81
2021/07/04 08:01:09;;;;;;;5.70;5.15;;;;;;;18.98;87.68;98828.63;2017064;80;20219;-84
2021/07/04 08:04:12;;;;;;;5.99;5.51;;;;;;;18.97;87.71;98833.97;2013072;81;20182;-83
2021/07/04 08:07:15;;;;;;;5.36;4.93;;;;;;;18.94;87.33;98823.59;2012279;81;20142;-82
2021/07/04 08:10:18;;;;;;;5.70;5.21;;;;;;;18.91;87.40;98831.63;2010997;81;20205;-77
2021/07/04 08:13:22;;;;;;;5.75;5.31;;;;;;;18.90;87.58;98829.94;2007730;81;20199;-79
2021/07/04 08:16:25;;;;;;;6.20;5.70;;;;;;;18.93;88.03;98829.78;2003145;81;20177;-78
2021/07/04 08:19:28;;;;;;;6.20;5.65;;;;;;;18.94;88.31;98823.59;2002893;81;20200;-77
2021/07/04 08:22:33;;;;;;;6.32;5.72;;;;;;;18.97;88.16;98832.19;2006651;81;20233;-82
2021/07/04 08:25:36;;;;;;;6.10;5.45;;;;;;;18.95;88.20;98817.41;2008060;80;20173;-76
2021/07/04 08:28:38;;;;;;;5.40;4.96;;;;;;;18.92;88.41;98814.91;2008579;81;20185;-77
2021/07/04 08:31:41;;;;;;;5.76;5.25;;;;;;;18.86;88.60;98804.69;2006415;78;24412;-77
2021/07/04 08:34:44;;;;;;;5.79;4.65;;;;;;;18.84;88.69;98801.25;2002687;81;20743;-77
2021/07/04 08:37:47;;;;;;;5.16;4.68;;;;;;;18.82;88.74;98801.34;2002118;81;20190;-78
2021/07/04 08:40:50;;;;;;;6.76;4.38;;;;;;;18.80;88.69;98803.19;2001935;81;20263;-78
2021/07/04 08:43:53;;;;;;;4.31;4.03;;;;;;;18.75;88.99;98796.44;2002015;81;20195;-79
2021/07/04 08:46:58;;;;;;;3.81;2.90;;;;;;;18.74;89.04;98794.75;2001070;78;21188;-79
2021/07/04 08:50:01;;;;;;;5.88;2.55;;;;;;;18.68;88.88;98793.28;2001785;81;21002;-78
2021/07/04 08:53:03;;;;;;;3.30;2.80;;;;;;;18.65;88.71;98802.13;2002477;81;20170;-77
2021/07/04 08:56:06;;;;;;;5.05;3.31;;;;;;;18.58;88.78;98810.34;2004099;81;20173;-76
2021/07/04 08:59:10;;;;;;;3.17;2.90;;;;;;;18.50;88.90;98813.34;1999687;81;20242;-74
2021/07/04 09:02:15;;;;;;;4.30;2.71;;;;;;;18.42;89.05;98791.78;2001084;78;33218;-72
2021/07/04 09:05:18;;;;;;;6.40;2.42;;;;;;;18.38;88.91;98795.50;2001141;81;20241;-72
2021/07/04 09:08:22;;;;;;;2.79;2.35;;;;;;;18.29;88.94;98793.28;2002106;81;20201;-74
2021/07/04 09:11:24;;;;;;;3.76;2.22;;;;;;;18.21;89.53;98800.66;2001180;81;20189;-74
2021/07/04 09:14:27;;;;;;;2.54;2.21;;;;;;;18.21;89.74;98800.66;2001740;81;20193;-74
2021/07/04 09:17:34;;;;;;;4.34;2.17;;;;;;;18.18;90.15;98800.81;2001224;78;21329;-73
2021/07/04 09:20:37;;;;;;;5.50;1.85;;;;;;;18.15;90.25;98800.94;2001710;81;20203;-73
2021/07/04 09:23:40;;;;;;;4.26;1.81;;;;;;;18.12;90.54;98796.66;2001310;81;20687;-73
2021/07/04 09:26:44;;;;;;;2.25;1.91;;;;;;;18.08;90.69;98801.19;2001729;81;20637;-73
2021/07/04 09:29:51;;;;;;;2.42;1.84;;;;;;;18.04;90.76;98788.28;2001912;81;20883;-74
2021/07/04 09:32:53;;;;;;;2.78;1.67;;;;;;;18.05;91.12;98789.97;2000742;78;21159;-73
2021/07/04 09:35:58;;;;;;;1.84;1.58;;;;;;;18.08;91.24;98768.81;2001393;81;20235;-74
2021/07/04 09:39:01;;;;;;;2.71;1.15;;;;;;;18.12;91.29;98768.59;1999786;81;20211;-74
2021/07/04 09:42:10;;;;;;;1.44;1.34;;;;;;;18.18;91.14;98775.38;2002140;81;20204;-74
2021/07/04 09:45:12;;;;;;;2.44;1.20;;;;;;;18.20;90.93;98767.41;2001070;81;20258;-74
2021/07/04 09:48:17;;;;;;;1.39;1.00;;;;;;;18.23;90.70;98764.66;2001977;78;20344;-75
2021/07/04 09:51:22;;;;;;;0.93;0.93;;;;;;;18.24;90.43;98768.97;2002155;81;20238;-75
2021/07/04 09:54:25;;;;;;;1.48;0.79;;;;;;;18.19;89.81;98771.81;2001520;81;20178;-75
2021/07/04 09:57:48;;;;;;;2.84;1.20;;;;;;;18.17;89.51;98780.69;2002259;81;20209;-74
2021/07/04 10:00:51;;;;;;;2.76;1.67;;;;;;;18.09;89.95;98808.16;2001797;78;24809;-74
2021/07/04 10:03:53;;;;;;;5.19;1.51;;;;;;;18.00;90.65;98834.00;2001825;81;20209;-73
2021/07/04 10:06:58;;;;;;;3.16;1.64;;;;;;;17.90;90.83;98803.78;2001255;81;20199;-74
2021/07/04 10:10:01;;;;;;;3.91;0.80;;;;;;;17.87;91.33;98801.28;2000482;81;20165;-75
2021/07/04 10:13:04;;;;;;;2.26;0.80;;;;;;;17.73;90.53;98794.00;2001033;81;20177;-74
2021/07/04 10:16:09;;;;;;;1.16;0.73;;;;;;;17.65;90.22;98773.31;2001002;78;22738;-74
2021/07/04 10:19:17;;;;;;;3.78;1.08;;;;;;;17.64;90.69;98752.38;2001636;81;20181;-75
2021/07/04 10:22:20;;;;;;;2.80;0.70;;;;;;;17.64;91.02;98747.97;2001553;81;20240;-75
2021/07/04 10:25:23;;;;;;;1.42;0.66;;;;;;;17.65;90.97;98743.56;1999894;81;20203;-74
2021/07/04 10:28:34;;;;;;;3.31;0.80;;;;;;;17.69;91.14;98755.66;2001682;81;20248;-74
2021/07/04 10:31:37;;;;;;;3.13;0.76;;;;;;;17.70;91.36;98771.34;2001243;78;20827;-74
2021/07/04 10:34:46;;;;;;;2.15;0.69;;;;;;;17.62;91.29;98773.44;2002119;81;20247;-75
2021/07/04 10:37:48;;;;;;;1.22;0.60;;;;;;;17.56;91.22;98767.56;2001232;81;20202;-76
2021/07/04 10:44:12;;;;;;;4.41;0.80;;;;;;;17.66;92.09;98763.66;2047326;70;20272;-79
2021/07/04 10:47:21;;;;;;;1.20;0.70;;;;;;;17.78;92.10;98760.53;2001882;78;20703;-77
2021/07/04 10:50:25;;;;;;;1.30;0.80;;;;;;;17.92;92.09;98746.78;2001703;81;20233;-77
2021/07/04 10:53:46;;;;;;;1.52;1.00;;;;;;;18.07;92.13;98731.19;2001507;81;20268;-77
2021/07/04 10:57:04;;;;;;;3.65;0.93;;;;;;;18.27;92.45;98735.53;2002320;81;20215;-77
2021/07/04 11:00:12;;;;;;;2.39;0.90;;;;;;;18.39;92.01;98728.84;2001944;81;20564;-77
2021/07/04 11:03:30;;;;;;;1.09;0.94;;;;;;;18.51;91.30;98732.69;2000729;78;20777;-78
2021/07/04 11:06:52;;;;;;;3.30;0.94;;;;;;;18.55;90.58;98740.34;2001172;81;20255;-78
2021/07/04 11:09:55;;;;;;;1.23;1.02;;;;;;;18.67;89.72;98738.94;2002406;81;20342;-78
2021/07/04 11:13:07;;;;;;;1.13;0.90;;;;;;;18.78;89.56;98736.66;2002690;81;20169;-78
2021/07/04 11:16:13;;;;;;;1.63;0.76;;;;;;;18.90;88.94;98735.22;2001964;78;21534;-77
2021/07/04 11:19:16;;;;;;;1.38;0.91;;;;;;;19.06;87.77;98730.91;2003198;81;20182;-77
2021/07/04 11:23:14;;;;;;;3.79;0.85;;;;;;;19.29;87.64;98727.13;2002618;80;20190;-77
2021/07/04 11:26:17;;;;;;;1.76;0.79;;;;;;;19.42;86.85;98728.22;1986024;81;20212;-75
2021/07/04 11:29:21;;;;;;;1.81;0.70;;;;;;;19.66;86.49;98718.22;2009851;81;20191;-81
2021/07/04 11:32:27;;;;;;;0.99;0.70;;;;;;;19.82;84.56;98724.41;1985765;81;2292503;-80
2021/07/04 11:35:43;;;;;;;1.77;0.70;;;;;;;19.85;82.99;98716.31;2012808;81;20168;-82
2021/07/04 11:38:59;;;;;;;4.14;0.98;;;;;;;19.99;84.14;98707.69;2008467;81;20639;-76
2021/07/04 11:42:02;;;;;;;0.60;0.60;;;;;;;20.26;83.93;98707.97;2003095;81;20209;-76
2021/07/04 11:45:15;;;;;;;1.20;1.13;;;;;;;20.46;84.02;98712.16;2001741;81;20307;-76
2021/07/04 11:48:19;;;;;;;0.60;0.60;;;;;;;20.80;83.27;98701.41;2003008;79;22308;-76
2021/07/04 11:51:29;;;;;;;1.05;0.69;;;;;;;21.25;82.91;98696.25;2001747;81;20258;-76
2021/07/04 11:54:35;;;;;;;0.73;0.73;;;;;;;21.57;80.00;98679.34;2002311;81;20206;-77
2021/07/04 11:57:42;;;;;;;1.33;0.60;;;;;;;21.82;79.15;98675.19;2006497;80;20203;-78
2021/07/04 12:00:44;;;;;;;0.51;0.51;;;;;;;22.01;78.38;98673.09;2002212;78;20207;-77
2021/07/04 12:03:52;;;;;;;0.55;0.54;;;;;;;22.32;77.28;98674.69;2003110;81;20220;-77
2021/07/04 12:06:58;;;;;;;2.08;0.89;;;;;;;22.71;77.30;98663.31;2003498;81;20169;-78
2021/07/04 12:10:01;;;;;;;1.23;0.60;;;;;;;22.96;75.81;98657.28;2002781;81;20199;-77
2021/07/04 12:13:04;;;;;;;1.30;0.70;;;;;;;23.18;74.45;98656.72;2003281;81;20519;-78
2021/07/04 12:16:06;;;;;;;0.73;0.73;;;;;;;23.26;71.72;98664.97;2001876;78;21644;-80
2021/07/04 12:19:09;;;;;;;0.91;0.80;;;;;;;23.40;73.94;98672.84;2005350;81;20189;-78
2021/07/04 12:22:19;;;;;;;0.81;0.74;;;;;;;23.58;71.99;98673.41;2002855;81;20209;-77
2021/07/04 12:25:47;;;;;;;2.75;0.90;;;;;;;23.68;70.89;98674.44;2003459;81;20220;-77
2021/07/04 12:28:50;;;;;;;1.77;0.74;;;;;;;23.75;70.82;98661.63;2004224;81;20257;-78
2021/07/04 12:32:05;;;;;;;0.80;0.80;;;;;;;23.76;68.47;98658.88;2002938;78;20278;-77
2021/07/04 12:35:18;;;;;;;1.16;0.77;;;;;;;23.87;68.86;98667.88;2003451;81;20185;-78
2021/07/04 12:38:25;;;;;;;1.13;0.80;;;;;;;23.97;68.16;98677.72;2001937;81;20178;-78
2021/07/04 12:41:33;;;;;;;3.11;0.80;;;;;;;23.69;65.79;98677.94;2005772;80;20173;-78
2021/07/04 12:44:36;;;;;;;0.80;0.80;;;;;;;23.42;67.63;98680.69;2003169;81;20166;-78
2021/07/04 12:47:39;;;;;;;0.75;0.75;;;;;;;23.11;69.10;98680.09;2001502;78;21470;-78
2021/07/04 12:50:48;;;;;;;1.48;0.86;;;;;;;22.78;71.42;98708.75;2003053;81;21090;-78
2021/07/04 12:53:50;;;;;;;0.94;0.50;;;;;;;22.42;73.00;98726.06;2003064;81;20245;-80
2021/07/04 12:56:53;;;;;;;7.18;0.90;;;;;;;21.69;66.18;98741.13;2004526;81;20750;-78
2021/07/04 13:00:08;;;;;;;2.50;0.40;;;;;;;20.72;68.47;98763.50;2002636;81;20267;-76
2021/07/04 13:03:11;;;;;;;0.86;0.31;;;;;;;20.00;70.32;98756.81;1997283;81;24511;-77
2021/07/04 13:06:36;;;;;;;2.70;0.40;;;;;;;19.47;72.83;98747.25;1996481;81;20227;-77
2021/07/04 13:09:39;;;;;;;1.31;0.30;;;;;;;19.04;74.29;98739.81;1994452;81;20219;-75
2021/07/04 13:12:42;;;;;;;2.65;0.31;;;;;;;18.73;75.53;98741.28;1995916;81;20685;-75
2021/07/04 13:15:44;;;;;;;1.85;0.50;;;;;;;18.39;76.20;98745.47;1995365;81;20685;-75
2021/07/04 13:18:47;;;;;;;2.08;0.40;;;;;;;17.95;76.58;98734.34;1995603;81;20231;-77
2021/07/04 13:21:51;;;;;;;1.83;0.26;;;;;;;17.77;78.34;98729.91;1995563;81;20270;-77
2021/07/04 13:24:56;;;;;;;3.05;0.50;;;;;;;17.69;80.08;98737.28;1995496;81;20873;-77
2021/07/04 13:28:02;;;;;;;3.21;0.31;;;;;;;17.65;81.71;98731.28;1995917;81;21496;-76
2021/07/04 13:31:14;;;;;;;5.40;0.45;;;;;;;17.71;83.35;98724.94;1999073;78;20201;-75
2021/07/04 13:34:21;;;;;;;1.44;0.30;;;;;;;17.69;82.29;98729.41;2000096;81;20303;-75
2021/07/04 13:37:28;;;;;;;0.51;0.38;;;;;;;17.72;82.49;98735.38;2000718;81;20194;-75
2021/07/04 13:40:31;;;;;;;2.66;0.24;;;;;;;17.75;82.60;98744.88;1999611;81;20241;-75
2021/07/04 13:43:33;;;;;;;1.73;0.50;;;;;;;17.91;83.09;98743.28;2000118;81;20178;-75
2021/07/04 13:46:37;;;;;;;1.20;0.44;;;;;;;18.20;83.24;98756.91;1988665;81;1026054;-76
2021/07/04 13:49:40;;;;;;;1.26;0.40;;;;;;;18.55;83.27;98761.38;2001205;81;20261;-77
2021/07/04 13:52:43;;;;;;;0.29;0.29;;;;;;;18.94;82.23;98774.44;2007843;81;20195;-81
2021/07/04 13:55:47;;;;;;;0.47;0.20;;;;;;;19.26;81.39;98765.00;2003199;81;20766;-76
2021/07/04 13:58:50;;;;;;;0.30;0.20;;;;;;;19.50;79.77;98752.34;2001375;81;20170;-76
2021/07/04 14:01:53;;;;;;;0.69;0.25;;;;;;;19.80;77.78;98759.66;2000416;78;37770;-77
2021/07/04 14:04:56;;;;;;;0.45;0.30;;;;;;;20.28;77.33;98760.59;2001563;81;20213;-76
2021/07/04 14:07:58;;;;;;;0.40;0.16;;;;;;;20.78;77.20;98761.34;2000986;81;20379;-76
2021/07/04 14:11:03;;;;;;;0.61;0.20;;;;;;;21.05;72.92;98752.81;2001282;81;20203;-77
2021/07/04 14:14:05;;;;;;;1.11;0.20;;;;;;;21.01;71.22;98768.00;2001444;81;20213;-76
2021/07/04 14:17:08;;;;;;;0.95;0.20;;;;;;;20.66;69.96;98771.75;2000384;78;21423;-76
2021/07/04 14:20:13;;;;;;;0.43;0.20;;;;;;;20.38;71.83;98764.47;2000716;81;20197;-76
2021/07/04 14:23:16;;;;;;;3.56;0.30;;;;;;;20.17;74.26;98750.66;2001182;81;20235;-76
2021/07/04 14:26:20;;;;;;;0.40;0.28;;;;;;;19.91;74.77;98758.16;2001644;81;20745;-76
2021/07/04 14:29:23;;;;;;;2.03;0.30;;;;;;;19.75;77.33;98761.66;2002357;81;20174;-77
2021/07/04 14:32:31;;;;;;;1.35;0.30;;;;;;;19.59;78.38;98759.84;2002047;78;22318;-77
2021/07/04 14:35:35;;;;;;;0.42;0.30;;;;;;;19.44;78.30;98775.53;2001789;81;20224;-76
2021/07/04 14:38:38;;;;;;;1.66;0.40;;;;;;;19.27;77.62;98781.63;2002140;81;20250;-76
2021/07/04 14:41:41;;;;;;;0.57;0.34;;;;;;;19.11;78.59;98778.03;2001139;81;20278;-76
2021/07/04 14:44:44;;;;;;;2.35;0.47;;;;;;;19.05;80.13;98768.69;2002314;81;20182;-75
2021/07/04 14:47:48;;;;;;;0.30;0.30;;;;;;;19.00;80.72;98765.41;2000241;78;21199;-75
2021/07/04 14:50:58;;;;;;;0.80;0.40;;;;;;;18.95;79.72;98775.31;2001526;81;20186;-74
2021/07/04 14:54:01;;;;;;;2.05;0.40;;;;;;;18.88;80.94;98785.28;2001921;81;20224;-75
2021/07/04 14:57:07;;;;;;;0.61;0.36;;;;;;;18.77;82.04;98792.81;2001463;81;20694;-74
2021/07/04 15:00:13;;;;;;;0.88;0.43;;;;;;;18.64;81.87;98792.53;2001829;81;20215;-74
2021/07/04 15:03:18;;;;;;;0.82;0.50;;;;;;;18.59;83.42;98788.38;2002105;78;23718;-74
2021/07/04 15:06:21;;;;;;;0.40;0.40;;;;;;;18.55;84.34;98789.47;2001787;81;20259;-74
2021/07/04 15:09:24;;;;;;;2.47;0.86;;;;;;;18.51;84.88;98790.53;2002377;81;21090;-74
2021/07/04 15:12:26;;;;;;;4.24;0.93;;;;;;;18.49;85.43;98785.34;2001440;81;20173;-74
2021/07/04 15:15:29;;;;;;;2.42;1.10;;;;;;;18.46;85.73;98779.34;2001232;78;24637;-74